Arteixo, Spain
Current Conditions -  °F | °C
As of 12:19 PM on Tuesday 21 Oct 2014 (Local Time) from LECO Reporting Station
Moderate Fog Moderate Fog  
Wind Chill: 64°   Ceiling: 500
Heat Index: 64°   Visibility: 2.1mi
Dew Point: 63°   Wind: 9mph
Humidity: 94%   Direction: 10°N
Pressure: 30.33"   Gusts: NA
Location:  43.3°N, 8.51°W
Report Text: LECO 211019Z 01008KT 3500 VCFG BKN005 18/17 Q1027 TEMPO1000 BCFG BKN002
Loading
Personal Weather Stations






























Interactive Weather Map
Tropical Storm Tracking
New forecast layout! Learn more

10-Day Weather Forecast

Advertisements
Track Severe Weather on mobile